Time;durP1;ratioP1;P1;durP2;ratioP2;P2;SDS_P1;SDS_P2;PMS_P1;PMS_P2;Temp;Humidity;BMP_temperature;BMP_pressure;BME280_temperature;BME280_humidity;BME280_pressure;Samples;Min_cycle;Max_cycle;Signal;HPM_P1;HPM_P2
2024/01/13 00:01:48;;;;;;;;;31.60;27.40;;;;;3.31;100.00;99075.19;5885958;29;98608;-60
2024/01/13 00:04:53;;;;;;;;;33.00;27.20;;;;;3.40;100.00;99073.31;5902624;29;96548;-60
2024/01/13 00:07:56;;;;;;;;;30.00;26.00;;;;;3.48;100.00;99074.09;5896450;29;96364;-60
2024/01/13 00:11:00;;;;;;;;;28.75;26.50;;;;;3.57;100.00;99074.91;5888408;29;96273;-60
2024/01/13 00:14:03;;;;;;;;;27.50;23.00;;;;;3.58;100.00;99081.06;5891414;29;96635;-60
2024/01/13 00:17:06;;;;;;;;;24.00;21.00;;;;;3.45;100.00;99076.28;5897725;29;96950;-59
2024/01/13 00:20:11;;;;;;;;;32.25;29.75;;;;;3.38;100.00;99052.16;5913177;29;96500;-58
2024/01/13 00:23:14;;;;;;;;;27.50;26.00;;;;;3.51;100.00;99069.44;5907034;29;96937;-58
2024/01/13 00:26:18;;;;;;;;;31.20;27.60;;;;;3.53;100.00;99076.25;5903848;29;96808;-58
2024/01/13 00:29:21;;;;;;;;;25.50;23.50;;;;;3.55;100.00;99066.25;5900342;29;96402;-58
2024/01/13 00:32:24;;;;;;;;;26.40;25.40;;;;;3.62;100.00;99072.53;5900860;29;96182;-58
2024/01/13 00:35:28;;;;;;;;;28.80;25.00;;;;;3.63;100.00;99071.56;5907210;29;96710;-58
2024/01/13 00:38:31;;;;;;;;;28.00;25.00;;;;;3.50;100.00;99081.94;5896565;29;96606;-58
2024/01/13 00:41:39;;;;;;;;;28.00;25.00;;;;;3.45;100.00;99071.78;5909717;29;96316;-58
2024/01/13 00:44:42;;;;;;;;;30.25;28.25;;;;;3.49;100.00;99072.28;5907448;29;96684;-59
2024/01/13 00:47:45;;;;;;;;;30.00;27.00;;;;;3.57;100.00;99068.75;5912985;29;96775;-58
2024/01/13 00:50:50;;;;;;;;;30.75;28.50;;;;;3.49;100.00;99085.59;5916362;29;96484;-58
2024/01/13 00:53:53;;;;;;;;;30.60;28.60;;;;;3.46;100.00;99064.63;5908623;29;96451;-58
2024/01/13 00:56:56;;;;;;;;;33.80;30.00;;;;;3.39;100.00;99052.97;5914967;29;96376;-58
2024/01/13 00:59:59;;;;;;;;;30.00;26.00;;;;;3.41;100.00;99069.66;5928995;29;96369;-58
2024/01/13 01:03:02;;;;;;;;;33.80;29.20;;;;;3.38;100.00;99061.97;5910756;29;99054;-58
2024/01/13 01:06:07;;;;;;;;;30.60;28.00;;;;;3.38;100.00;99057.47;5906975;29;96291;-58
2024/01/13 01:09:10;;;;;;;;;29.33;27.00;;;;;3.45;100.00;99062.97;5914085;29;98459;-58
2024/01/13 01:12:14;;;;;;;;;29.00;27.00;;;;;3.44;100.00;99054.13;5915818;29;96476;-58
2024/01/13 01:15:17;;;;;;;;;26.00;23.00;;;;;3.45;100.00;99050.47;5920200;29;96840;-58
2024/01/13 01:18:20;;;;;;;;;30.20;26.20;;;;;3.42;100.00;99058.00;5904885;29;96315;-58
2024/01/13 01:21:32;;;;;;;;;29.00;27.00;;;;;3.38;100.00;99062.81;5912920;29;97491;-58
2024/01/13 01:24:35;;;;;;;;;30.00;28.00;;;;;3.38;100.00;99069.97;5903809;29;97147;-58
2024/01/13 01:27:38;;;;;;;;;29.80;27.20;;;;;3.46;100.00;99075.28;5907059;29;96759;-60
2024/01/13 01:30:42;;;;;;;;;29.00;26.25;;;;;3.43;100.00;99070.28;5899322;29;97530;-60
2024/01/13 01:33:45;;;;;;;;;32.00;30.00;;;;;3.48;100.00;99067.94;5896883;29;96600;-60
2024/01/13 01:36:50;;;;;;;;;27.00;26.00;;;;;3.47;100.00;99051.13;5900196;29;97531;-60
2024/01/13 01:39:53;;;;;;;;;32.00;28.00;;;;;3.56;100.00;99064.44;5893838;29;97013;-60
2024/01/13 01:42:56;;;;;;;;;28.50;26.50;;;;;3.52;100.00;99055.13;5893815;29;99237;-60
2024/01/13 01:46:01;;;;;;;;;28.00;26.00;;;;;3.49;100.00;99062.44;5897210;29;96837;-60
2024/01/13 01:49:05;;;;;;;;;30.80;28.80;;;;;3.62;100.00;99051.22;5902082;29;96780;-60
2024/01/13 01:52:10;;;;;;;;;27.60;26.60;;;;;3.51;100.00;99048.13;5903464;29;96732;-60
2024/01/13 01:55:14;;;;;;;;;29.00;27.00;;;;;3.53;100.00;99046.94;5891695;29;96366;-60
2024/01/13 01:58:19;;;;;;;;;31.40;28.00;;;;;3.58;100.00;99041.91;5901040;29;96390;-60
2024/01/13 02:01:54;;;;;;;;;30.60;26.80;;;;;3.65;100.00;99034.06;5916346;23;96354;31
2024/01/13 02:05:00;;;;;;;;;28.60;25.60;;;;;3.66;100.00;99036.56;5870508;29;97818;-55
2024/01/13 02:11:49;;;;;;;;;30.00;28.50;;;;;3.54;100.00;99032.59;5919378;24;96632;-56
2024/01/13 02:14:54;;;;;;;;;29.00;27.00;;;;;3.64;100.00;99013.72;5908874;29;96566;-56
2024/01/13 02:17:57;;;;;;;;;28.00;25.00;;;;;3.57;100.00;99008.25;5910185;29;96304;-56
2024/01/13 02:21:00;;;;;;;;;29.00;27.00;;;;;3.61;100.00;99011.44;5906497;29;96430;-56
2024/01/13 02:24:05;;;;;;;;;31.00;27.00;;;;;3.72;100.00;99017.19;5916565;29;96395;-56
2024/01/13 02:27:08;;;;;;;;;28.25;24.75;;;;;3.71;100.00;99007.53;5916146;29;98480;-56
2024/01/13 02:30:12;;;;;;;;;27.40;25.00;;;;;3.65;100.00;99010.06;5915736;29;96581;-56
2024/01/13 02:33:16;;;;;;;;;28.75;25.75;;;;;3.56;100.00;99011.13;5907068;29;96260;-56
2024/01/13 02:36:19;;;;;;;;;16.00;14.00;;;;;3.67;100.00;99008.03;5955110;23;97076;-56
2024/01/13 02:39:24;;;;;;;;;27.00;26.00;;;;;3.76;100.00;99007.81;5916139;29;96929;-56
2024/01/13 02:42:27;;;;;;;;;29.00;26.00;;;;;3.81;100.00;99002.78;5916729;29;96255;-56
2024/01/13 02:45:30;;;;;;;;;20.50;19.00;;;;;3.77;100.00;98996.16;5910090;29;96908;-56
2024/01/13 02:48:38;;;;;;;;;24.00;22.00;;;;;3.76;100.00;98994.47;5920999;29;96357;-56
2024/01/13 02:51:42;;;;;;;;;24.60;23.00;;;;;3.83;100.00;98991.97;5923428;29;96251;-56
2024/01/13 02:54:48;;;;;;;;;23.80;21.20;;;;;3.83;100.00;98992.78;5906355;29;96641;-56
2024/01/13 02:57:51;;;;;;;;;25.00;24.00;;;;;3.90;100.00;98990.25;5913190;29;96647;-56
2024/01/13 03:00:54;;;;;;;;;25.00;23.00;;;;;3.83;100.00;98992.78;5914993;29;96343;-56
2024/01/13 03:03:58;;;;;;;;;24.00;23.00;;;;;3.79;100.00;98994.16;5913166;29;97010;-56
2024/01/13 03:07:01;;;;;;;;;25.80;23.00;;;;;3.83;100.00;98981.28;5936445;24;96820;-53
2024/01/13 03:10:06;;;;;;;;;24.00;22.00;;;;;3.84;100.00;98991.78;5902072;29;96341;-54
2024/01/13 03:13:10;;;;;;;;;24.00;23.20;;;;;3.85;100.00;98992.63;5898851;29;96418;-54
2024/01/13 03:16:14;;;;;;;;;24.00;22.40;;;;;3.89;100.00;99002.75;5910540;29;96954;-54
2024/01/13 03:19:19;;;;;;;;;20.20;20.20;;;;;4.01;100.00;98992.50;5903960;29;96972;-54
2024/01/13 03:22:22;;;;;;;;;21.40;20.00;;;;;4.00;100.00;98988.19;5887958;29;97051;-54
2024/01/13 03:25:27;;;;;;;;;24.00;22.40;;;;;3.92;100.00;98986.41;5904297;29;96369;-55
2024/01/13 03:28:30;;;;;;;;;25.00;22.20;;;;;3.96;100.00;98978.06;5894540;29;96487;-54
2024/01/13 03:31:43;;;;;;;;;22.50;21.50;;;;;3.95;100.00;98971.06;5910192;29;96290;-55
2024/01/13 03:34:46;;;;;;;;;23.50;22.50;;;;;3.95;100.00;98965.72;5894468;29;96290;-54
2024/01/13 03:37:50;;;;;;;;;24.00;23.00;;;;;3.92;100.00;98961.56;5899333;29;96316;-54
2024/01/13 03:40:54;;;;;;;;;24.75;21.75;;;;;4.03;100.00;98946.97;5888527;29;96600;-54
2024/01/13 03:43:58;;;;;;;;;25.00;22.00;;;;;3.98;100.00;98942.19;5897007;29;96711;-55
2024/01/13 03:47:01;;;;;;;;;22.00;21.00;;;;;3.98;100.00;98944.00;5900134;29;96613;-54
2024/01/13 03:50:05;;;;;;;;;22.20;19.00;;;;;3.96;100.00;98936.19;5896886;29;97019;-54
2024/01/13 03:53:08;;;;;;;;;19.00;18.00;;;;;4.02;100.00;98931.97;5893304;29;96395;-54
2024/01/13 03:56:12;;;;;;;;;21.00;18.75;;;;;4.09;100.00;98930.25;5891887;29;96232;-54
2024/01/13 03:59:15;;;;;;;;;19.60;19.00;;;;;4.16;100.00;98924.00;5882930;29;96357;-54
2024/01/13 04:02:19;;;;;;;;;19.40;18.40;;;;;4.14;100.00;98919.88;5883059;29;96383;-54
2024/01/13 04:05:22;;;;;;;;;18.00;18.00;;;;;3.97;100.00;98915.66;5887556;29;96332;-54
2024/01/13 04:08:25;;;;;;;;;17.00;16.00;;;;;3.99;100.00;98917.16;5901019;29;97072;-54
2024/01/13 04:11:30;;;;;;;;;18.40;18.00;;;;;3.96;100.00;98919.38;5898878;29;98062;-54
2024/01/13 04:14:33;;;;;;;;;18.60;17.60;;;;;3.95;100.00;98915.03;5876733;29;96428;-54
2024/01/13 04:17:36;;;;;;;;;19.00;17.40;;;;;3.97;100.00;98921.84;5884689;29;99558;-56
2024/01/13 04:20:40;;;;;;;;;18.00;16.00;;;;;4.01;100.00;98917.00;5904562;29;98756;-56
2024/01/13 04:23:43;;;;;;;;;18.80;16.00;;;;;4.09;100.00;98922.25;5901275;29;96133;-56
2024/01/13 04:26:48;;;;;;;;;19.00;17.00;;;;;4.08;100.00;98918.75;5900014;29;98543;-56
2024/01/13 04:29:51;;;;;;;;;18.75;16.00;;;;;4.08;100.00;98920.59;5895434;29;96569;-56
2024/01/13 04:32:55;;;;;;;;;17.00;16.00;;;;;4.01;100.00;98923.13;5899079;29;96505;-56
2024/01/13 04:35:58;;;;;;;;;15.00;14.00;;;;;4.10;100.00;98929.25;5895022;29;97531;-56
2024/01/13 04:39:03;;;;;;;;;19.00;17.60;;;;;4.11;100.00;98922.88;5903564;29;98170;-56
2024/01/13 04:42:08;;;;;;;;;18.80;17.00;;;;;4.15;100.00;98917.03;5907337;29;96320;-56
2024/01/13 04:45:11;;;;;;;;;18.40;16.40;;;;;4.20;100.00;98906.63;5910362;29;96572;-56
2024/01/13 04:48:17;;;;;;;;;15.50;14.50;;;;;4.24;100.00;98921.28;5894687;29;96840;-56
2024/01/13 04:51:20;;;;;;;;;15.00;14.00;;;;;4.24;100.00;98907.13;5900396;29;96335;-56
2024/01/13 04:54:23;;;;;;;;;19.00;17.00;;;;;4.24;100.00;98907.94;5906854;29;96825;-56
2024/01/13 04:57:28;;;;;;;;;18.00;16.50;;;;;4.27;100.00;98904.91;5903660;29;96329;-56
2024/01/13 05:00:33;;;;;;;;;17.40;16.40;;;;;4.29;100.00;98900.22;5907241;29;96372;-56
2024/01/13 05:03:36;;;;;;;;;17.00;17.00;;;;;4.31;100.00;98898.19;5913400;29;96353;-56
2024/01/13 05:06:40;;;;;;;;;18.00;16.60;;;;;4.32;100.00;98889.19;5901016;29;96334;-56
2024/01/13 05:09:43;;;;;;;;;17.00;15.20;;;;;4.29;100.00;98886.88;5925197;29;96240;-56
2024/01/13 05:12:48;;;;;;;;;13.80;12.80;;;;;4.32;100.00;98891.03;5903590;29;96509;-56
2024/01/13 05:15:51;;;;;;;;;17.00;15.00;;;;;4.36;100.00;98890.47;5908375;29;96360;-56
2024/01/13 05:18:54;;;;;;;;;16.80;16.00;;;;;4.38;100.00;98887.63;5903550;29;96445;-56
2024/01/13 05:21:57;;;;;;;;;17.60;15.60;;;;;4.27;100.00;98872.06;5901141;29;96321;-56
2024/01/13 05:25:00;;;;;;;;;15.40;14.00;;;;;4.44;100.00;98878.06;5911428;29;99379;-56
2024/01/13 05:28:05;;;;;;;;;16.60;13.60;;;;;4.38;100.00;98873.44;5884625;29;96673;-55
2024/01/13 05:31:08;;;;;;;;;18.00;16.00;;;;;4.43;100.00;98868.41;5905797;29;96332;-56
2024/01/13 05:34:11;;;;;;;;;19.40;16.00;;;;;4.40;100.00;98866.09;5903080;29;96281;-56
2024/01/13 05:37:15;;;;;;;;;18.50;16.25;;;;;4.44;100.00;98868.22;5968882;23;96278;-56
2024/01/13 05:40:19;;;;;;;;;15.00;14.00;;;;;4.38;100.00;98857.44;5917411;29;96355;-56
2024/01/13 05:43:24;;;;;;;;;17.00;16.00;;;;;4.47;100.00;98880.34;5916265;29;96374;-56
2024/01/13 05:46:27;;;;;;;;;16.67;15.00;;;;;4.49;100.00;98878.34;5927871;29;96551;-56
2024/01/13 05:49:30;;;;;;;;;15.60;15.00;;;;;4.45;100.00;98882.41;5917990;29;96380;-56
2024/01/13 05:52:36;;;;;;;;;13.20;12.60;;;;;4.58;100.00;98888.75;5926369;29;96339;-56
2024/01/13 05:55:39;;;;;;;;;14.75;13.25;;;;;4.58;100.00;98886.09;5926059;29;96382;-56
2024/01/13 05:58:43;;;;;;;;;15.75;14.75;;;;;4.59;100.00;98893.09;5921221;29;96934;-56
2024/01/13 06:01:47;;;;;;;;;17.40;15.40;;;;;4.56;100.00;98890.78;5926219;29;97127;-56
2024/01/13 06:04:51;;;;;;;;;17.60;14.00;;;;;4.58;100.00;98888.75;5917786;29;96146;-56
2024/01/13 06:07:55;;;;;;;;;15.20;14.20;;;;;4.67;100.00;98889.50;6109503;23;97660;-56
2024/01/13 06:10:58;;;;;;;;;16.40;14.40;;;;;4.68;100.00;98889.31;5927079;29;96420;-56
2024/01/13 06:14:02;;;;;;;;;14.60;12.60;;;;;4.79;100.00;98906.69;5927247;29;96701;-56
2024/01/13 06:17:06;;;;;;;;;20.00;18.00;;;;;4.74;100.00;98901.91;5927128;29;96895;-56
2024/01/13 06:20:09;;;;;;;;;17.40;15.40;;;;;4.72;100.00;98895.09;5927048;29;96254;-56
2024/01/13 06:23:12;;;;;;;;;15.00;14.00;;;;;4.64;100.00;98908.56;5928430;29;96880;-56
2024/01/13 06:26:16;;;;;;;;;13.60;12.20;;;;;4.53;100.00;98877.81;5925651;29;99208;-55
2024/01/13 06:29:20;;;;;;;;;18.00;16.00;;;;;4.69;100.00;98893.63;5925551;29;96301;-55
2024/01/13 06:32:23;;;;;;;;;16.80;13.80;;;;;4.71;100.00;98885.44;5927377;29;96294;-56
2024/01/13 06:35:26;;;;;;;;;15.60;15.20;;;;;4.84;100.00;98893.63;5926926;29;96846;-56
2024/01/13 06:42:08;;;;;;;;;15.33;14.67;;;;;4.99;100.00;98889.09;5917511;29;97269;-55
2024/01/13 06:45:12;;;;;;;;;17.00;15.00;;;;;5.00;100.00;98877.41;5918109;29;96265;-56
2024/01/13 06:48:15;;;;;;;;;16.00;14.40;;;;;5.01;100.00;98883.56;5922865;29;97007;-56
2024/01/13 06:51:19;;;;;;;;;15.60;14.40;;;;;5.05;100.00;98879.50;5927403;29;96415;-56
2024/01/13 06:54:22;;;;;;;;;16.80;14.80;;;;;5.06;100.00;98881.19;5920110;29;96205;-58
2024/01/13 06:57:25;;;;;;;;;18.20;15.00;;;;;5.05;100.00;98883.00;5927383;29;96453;-55
2024/01/13 07:00:29;;;;;;;;;18.60;16.20;;;;;5.13;100.00;98885.56;5921254;29;96325;-56
2024/01/13 07:03:33;;;;;;;;;15.00;14.80;;;;;5.11;100.00;98879.59;5921669;29;96314;-55
2024/01/13 07:06:37;;;;;;;;;18.40;17.40;;;;;5.08;100.00;98874.63;5924680;29;96420;-55
2024/01/13 07:09:41;;;;;;;;;20.20;18.00;;;;;5.07;100.00;98883.66;5909529;29;96660;-55
2024/01/13 07:12:46;;;;;;;;;16.40;15.00;;;;;5.08;100.00;98879.97;5901859;29;96207;-55
2024/01/13 07:15:51;;;;;;;;;16.00;15.33;;;;;5.13;100.00;98874.09;5914180;29;96448;-56
2024/01/13 07:18:54;;;;;;;;;17.80;16.40;;;;;5.16;100.00;98874.53;5909619;29;96430;-57
2024/01/13 07:21:57;;;;;;;;;17.40;16.40;;;;;5.17;100.00;98876.19;5910042;29;96878;-57
2024/01/13 07:25:00;;;;;;;;;17.00;15.00;;;;;5.16;100.00;98885.22;5906993;29;96311;-55
2024/01/13 07:28:04;;;;;;;;;16.67;15.00;;;;;5.21;100.00;98879.31;5910271;29;96835;-55
2024/01/13 07:31:08;;;;;;;;;17.00;15.25;;;;;5.27;100.00;98878.56;5910302;29;96534;-56
2024/01/13 07:34:12;;;;;;;;;16.60;15.20;;;;;5.35;100.00;98881.13;5911264;29;96310;-57
2024/01/13 07:37:15;;;;;;;;;13.25;12.25;;;;;5.38;100.00;98869.19;5910425;29;96690;-55
2024/01/13 07:40:18;;;;;;;;;16.50;14.50;;;;;5.33;100.00;98880.47;5911473;29;96429;-56
2024/01/13 07:43:22;;;;;;;;;14.60;13.60;;;;;5.33;100.00;98884.97;5928433;29;96279;-55
2024/01/13 07:46:26;;;;;;;;;15.75;14.00;;;;;5.35;100.00;98880.28;5912485;29;96356;-56
2024/01/13 07:49:29;;;;;;;;;14.60;13.60;;;;;5.32;100.00;98883.34;5897743;29;97367;-56
2024/01/13 07:52:33;;;;;;;;;17.20;16.00;;;;;5.36;100.00;98877.44;5897682;29;96299;-55
2024/01/13 07:55:36;;;;;;;;;17.00;15.00;;;;;5.40;100.00;98875.19;5895512;29;97250;-56
2024/01/13 07:58:39;;;;;;;;;17.00;15.00;;;;;5.33;100.00;98871.59;5888066;29;96386;-55
2024/01/13 08:01:44;;;;;;;;;16.00;15.40;;;;;5.31;100.00;98871.81;5892690;29;96326;-55
2024/01/13 08:04:47;;;;;;;;;15.60;14.60;;;;;5.34;100.00;98876.78;5892237;29;96383;-55
2024/01/13 08:07:50;;;;;;;;;16.00;15.40;;;;;5.40;100.00;98872.53;5896569;29;96412;-56
2024/01/13 08:10:53;;;;;;;;;15.33;14.33;;;;;5.39;100.00;98869.03;5909118;29;97720;-55
2024/01/13 08:13:57;;;;;;;;;16.00;15.00;;;;;5.40;100.00;98872.53;5894501;29;96251;-55
2024/01/13 08:17:01;;;;;;;;;19.00;18.00;;;;;5.37;100.00;98868.41;5895060;29;96384;-55
2024/01/13 08:20:05;;;;;;;;;17.00;16.60;;;;;5.41;100.00;98867.00;5900112;29;96278;-55
2024/01/13 08:23:08;;;;;;;;;19.00;17.00;;;;;5.49;100.00;98871.38;5904765;29;96295;-55
2024/01/13 08:26:11;;;;;;;;;18.75;16.75;;;;;5.46;100.00;98861.09;5890297;29;97271;-55
2024/01/13 08:29:18;;;;;;;;;20.67;19.67;;;;;5.53;100.00;98864.63;5892525;29;97403;-55
2024/01/13 08:32:22;;;;;;;;;20.00;18.60;;;;;5.56;100.00;98859.75;5896624;29;97043;-55
2024/01/13 08:35:25;;;;;;;;;17.00;17.00;;;;;5.63;100.00;98857.97;5891012;29;96284;-55
2024/01/13 08:38:28;;;;;;;;;17.40;16.40;;;;;5.67;100.00;98850.38;5880745;29;96787;-55
2024/01/13 08:41:32;;;;;;;;;20.33;18.67;;;;;5.78;100.00;98855.22;5878306;29;98095;-57
2024/01/13 08:44:37;;;;;;;;;14.60;14.00;;;;;5.33;100.00;98788.75;5887923;29;97285;-55
2024/01/13 08:47:42;;;;;;;;;16.80;16.00;;;;;5.68;100.00;98852.03;5890958;29;96680;-55
2024/01/13 08:50:45;;;;;;;;;16.40;13.40;;;;;5.70;100.00;98851.84;5899375;29;96266;-55
2024/01/13 08:53:48;;;;;;;;;16.00;14.00;;;;;5.47;100.00;98830.66;5888167;29;97666;-56
2024/01/13 08:56:51;;;;;;;;;15.50;13.00;;;;;5.74;100.00;98842.41;5897251;29;96451;-55
2024/01/13 08:59:54;;;;;;;;;17.60;14.60;;;;;5.84;100.00;98846.44;5904377;29;96278;-57
2024/01/13 09:02:59;;;;;;;;;15.60;14.00;;;;;5.84;100.00;98845.59;5903755;29;96947;-57
2024/01/13 09:06:02;;;;;;;;;17.75;15.00;;;;;5.95;100.00;98839.78;5907036;23;96584;-57
2024/01/13 09:09:05;;;;;;;;;14.00;14.00;;;;;5.99;100.00;98841.03;5873279;29;97116;-57
2024/01/13 09:12:09;;;;;;;;;15.20;13.20;;;;;5.96;100.00;98844.09;5877052;29;96530;-57
2024/01/13 09:15:13;;;;;;;;;16.00;15.00;;;;;5.82;100.00;98815.53;5878637;29;96460;-57
2024/01/13 09:18:18;;;;;;;;;15.00;13.60;;;;;5.90;100.00;98829.66;5877928;29;96771;-57
2024/01/13 09:21:22;;;;;;;;;19.00;17.00;;;;;6.00;100.00;98819.44;5879836;29;96400;-57
2024/01/13 09:24:42;;;;;;;;;17.40;16.40;;;;;6.11;100.00;98820.72;5890920;29;96645;-57
2024/01/13 09:27:45;;;;;;;;;16.40;15.40;;;;;6.16;100.00;98834.34;5886582;29;97603;-57
2024/01/13 09:30:48;;;;;;;;;16.20;14.80;;;;;6.18;100.00;98837.69;5885201;29;96420;-57
2024/01/13 09:33:53;;;;;;;;;19.60;18.00;;;;;6.17;100.00;98824.47;5889351;29;96348;-57
2024/01/13 09:36:56;;;;;;;;;18.80;16.20;;;;;6.08;100.00;98823.81;5895976;23;96528;-58
2024/01/13 09:39:59;;;;;;;;;18.00;17.00;;;;;6.02;100.00;98822.72;5900799;29;96268;-57
2024/01/13 09:43:13;;;;;;;;;15.00;14.50;;;;;6.04;100.00;98820.69;5901434;29;96864;-57
2024/01/13 09:46:16;;;;;;;;;20.00;17.60;;;;;6.10;100.00;98816.44;5903747;29;96349;-57
2024/01/13 09:49:22;;;;;;;;;17.75;16.75;;;;;6.15;100.00;98818.50;5901037;29;96487;-57
2024/01/13 09:52:26;;;;;;;;;19.40;18.00;;;;;6.20;100.00;98816.09;5894854;29;96298;-57
2024/01/13 09:55:30;;;;;;;;;16.60;16.00;;;;;6.10;100.00;98805.72;5901070;29;96490;-57
2024/01/13 09:58:33;;;;;;;;;15.80;15.00;;;;;6.11;100.00;98799.31;5917156;29;97290;-58
2024/01/13 10:01:37;;;;;;;;;16.00;14.75;;;;;6.13;100.00;98788.44;5903754;29;96935;-57
2024/01/13 10:04:42;;;;;;;;;15.00;13.75;;;;;6.09;100.00;98796.03;5902095;29;96259;-57
2024/01/13 10:07:53;;;;;;;;;17.00;15.25;;;;;6.08;100.00;98789.84;5924390;23;96902;-56
2024/01/13 10:10:56;;;;;;;;;19.00;17.80;;;;;6.10;100.00;98786.97;5899567;29;96970;-56
2024/01/13 10:14:00;;;;;;;;;17.00;16.40;;;;;5.88;100.00;98778.16;5899476;29;96355;-56
2024/01/13 10:17:05;;;;;;;;;15.40;15.00;;;;;5.94;100.00;98760.50;5901618;29;96356;-56
2024/01/13 10:20:13;;;;;;;;;21.00;18.00;;;;;5.98;100.00;98770.63;5905849;29;96352;-56
2024/01/13 10:23:17;;;;;;;;;17.20;16.00;;;;;6.01;100.00;98775.56;5901937;29;96332;-56
2024/01/13 10:26:20;;;;;;;;;17.00;15.50;;;;;6.07;100.00;98777.47;5905698;29;96856;-55
2024/01/13 10:29:24;;;;;;;;;17.00;14.00;;;;;6.12;100.00;98766.19;5902518;29;96719;-57
2024/01/13 10:32:28;;;;;;;;;15.20;14.00;;;;;6.09;100.00;98763.91;5900645;29;96464;-56
2024/01/13 10:35:33;;;;;;;;;13.60;12.00;;;;;6.13;100.00;98757.13;5903574;29;97070;-56
2024/01/13 10:38:39;;;;;;;;;18.50;16.50;;;;;6.23;100.00;98759.47;5890985;29;96519;-56
2024/01/13 10:41:44;;;;;;;;;17.00;15.20;;;;;6.19;100.00;98751.00;5891391;29;97143;-56
2024/01/13 10:44:55;;;;;;;;;15.25;13.25;;;;;6.19;100.00;98748.31;5889644;29;96724;-56
2024/01/13 10:48:04;;;;;;;;;16.00;15.00;;;;;6.19;100.00;98760.88;5881850;29;96319;-56
2024/01/13 10:51:16;;;;;;;;;18.40;16.60;;;;;6.25;100.00;98758.25;5887960;29;96567;-55
2024/01/13 10:54:36;;;;;;;;;18.25;16.25;;;;;6.25;100.00;98736.00;5884296;29;98612;-55
2024/01/13 10:57:41;;;;;;;;;20.00;17.00;;;;;6.33;100.00;98739.34;5888870;29;96363;-55
2024/01/13 11:00:44;;;;;;;;;19.00;17.00;;;;;6.30;100.00;98733.56;5892517;29;96688;-56
2024/01/13 11:03:53;;;;;;;;;17.00;15.00;;;;;6.30;100.00;98736.25;5896562;29;96432;-56
2024/01/13 11:07:00;;;;;;;;;15.80;14.40;;;;;6.29;100.00;98734.59;5891159;29;96265;-55
2024/01/13 11:10:08;;;;;;;;;12.80;11.80;;;;;6.30;100.00;98728.22;5893140;29;96410;-55
2024/01/13 11:13:19;;;;;;;;;14.80;13.60;;;;;6.24;100.00;98721.78;5888438;29;96931;-55
2024/01/13 11:16:24;;;;;;;;;10.20;10.00;;;;;6.34;100.00;98716.06;5888078;29;96976;-56
2024/01/13 11:19:27;;;;;;;;;15.00;15.00;;;;;6.47;100.00;98708.94;5901974;29;96971;-56
2024/01/13 11:22:35;;;;;;;;;16.60;14.60;;;;;6.47;100.00;98708.94;5905724;29;97961;-57
2024/01/13 11:25:43;;;;;;;;;14.40;12.40;;;;;6.49;100.00;98706.06;5907959;29;96228;-56
2024/01/13 11:28:50;;;;;;;;;13.20;12.20;;;;;6.50;100.00;98697.78;5906242;29;96271;-56
2024/01/13 11:31:56;;;;;;;;;14.00;13.00;;;;;6.58;100.00;98683.41;5913896;29;96454;-56
2024/01/13 11:35:00;;;;;;;;;17.00;15.00;;;;;6.59;100.00;98682.41;5912444;29;96332;-55
2024/01/13 11:38:07;;;;;;;;;16.40;15.00;;;;;6.53;100.00;98680.53;5903888;29;96576;-56
2024/01/13 11:41:12;;;;;;;;;15.00;14.00;;;;;6.54;100.00;98679.50;5905626;29;97109;-55
2024/01/13 11:44:23;;;;;;;;;13.60;13.00;;;;;6.65;100.00;98668.19;5903725;29;96449;-55
2024/01/13 11:47:29;;;;;;;;;15.20;14.00;;;;;6.66;100.00;98661.81;5889101;29;96440;-56
2024/01/13 11:50:36;;;;;;;;;14.00;14.00;;;;;6.64;100.00;98658.53;5904546;29;96468;-56
2024/01/13 11:53:43;;;;;;;;;13.60;12.60;;;;;6.74;100.00;98650.09;5907630;29;96302;-56
2024/01/13 11:56:48;;;;;;;;;15.80;14.80;;;;;6.57;100.00;98665.69;5906284;29;96264;-57
2024/01/13 11:59:52;;;;;;;;;12.25;12.00;;;;;6.52;100.00;98662.78;5889444;29;97554;-57
2024/01/13 12:02:55;;;;;;;;;14.50;13.00;;;;;6.44;100.00;98646.91;5905942;29;96319;-56
2024/01/13 12:05:59;;;;;;;;;15.00;14.00;;;;;6.52;100.00;98631.47;5901671;29;96614;-57
2024/01/13 12:09:04;;;;;;;;;14.80;14.00;;;;;6.33;100.00;98632.25;5914544;29;96733;-56
2024/01/13 12:12:07;;;;;;;;;16.20;15.40;;;;;6.42;100.00;98630.22;5917026;29;96286;-56
2024/01/13 12:15:11;;;;;;;;;13.00;13.00;;;;;6.32;100.00;98621.72;5913968;29;96531;-55
2024/01/13 12:18:21;;;;;;;;;16.75;15.50;;;;;6.31;100.00;98612.03;5910861;29;96958;-55
2024/01/13 12:21:25;;;;;;;;;15.00;14.00;;;;;6.29;100.00;98601.56;5906336;29;96434;-56
2024/01/13 12:24:44;;;;;;;;;16.00;15.00;;;;;6.32;100.00;98600.31;5901590;29;96916;-55
2024/01/13 12:27:48;;;;;;;;;19.20;17.00;;;;;6.33;100.00;98600.13;5899021;29;96515;-57
2024/01/13 12:30:53;;;;;;;;;17.00;15.00;;;;;6.30;100.00;98592.50;5887809;29;97068;-57
2024/01/13 12:33:56;;;;;;;;;16.40;15.00;;;;;6.31;100.00;98604.84;5883950;29;96483;-58
2024/01/13 12:37:02;;;;;;;;;14.00;12.00;;;;;6.38;100.00;98603.03;5892001;29;96478;-57
2024/01/13 12:40:08;;;;;;;;;15.80;14.00;;;;;6.32;100.00;98597.63;5893527;29;96280;-57
2024/01/13 12:43:11;;;;;;;;;17.00;16.00;;;;;6.34;100.00;98592.91;5890964;29;96293;-58
2024/01/13 12:46:14;;;;;;;;;14.40;14.00;;;;;6.25;100.00;98586.09;5892604;29;96635;-57
2024/01/13 12:49:18;;;;;;;;;19.00;18.00;;;;;6.36;100.00;98585.50;5894597;29;96403;-57
2024/01/13 12:52:21;;;;;;;;;17.60;15.60;;;;;6.31;100.00;98578.06;5897417;29;96212;-57
2024/01/13 12:55:26;;;;;;;;;15.60;14.00;;;;;6.32;100.00;98578.91;5892564;29;97375;-57
2024/01/13 12:58:29;;;;;;;;;15.25;14.50;;;;;6.22;100.00;98576.59;5893009;29;96775;-57
2024/01/13 13:01:33;;;;;;;;;17.00;16.60;;;;;6.18;100.00;98575.38;5894627;29;96330;-57
2024/01/13 13:04:36;;;;;;;;;16.40;15.00;;;;;6.23;100.00;98566.72;5910554;29;96692;-57
2024/01/13 13:07:39;;;;;;;;;17.40;16.00;;;;;6.26;100.00;98569.81;5895955;29;97683;-57
2024/01/13 13:10:44;;;;;;;;;16.50;16.00;;;;;6.22;100.00;98568.56;5891574;29;99169;-57
2024/01/13 13:13:47;;;;;;;;;17.00;15.00;;;;;6.26;100.00;98575.16;5910267;29;96571;-57
2024/01/13 13:16:51;;;;;;;;;19.00;18.00;;;;;6.31;100.00;98579.91;5897744;29;96386;-57
2024/01/13 13:19:54;;;;;;;;;19.80;17.80;;;;;6.24;100.00;98568.38;5897188;29;96379;-57
2024/01/13 13:22:59;;;;;;;;;18.50;16.50;;;;;6.22;100.00;98568.56;5890255;29;98524;-58
2024/01/13 13:26:03;;;;;;;;;18.20;18.00;;;;;6.27;100.00;98574.16;5884927;29;96906;-57
2024/01/13 13:29:07;;;;;;;;;21.00;18.00;;;;;6.22;100.00;98565.91;5879666;29;96725;-57
2024/01/13 13:32:10;;;;;;;;;20.00;19.00;;;;;6.29;100.00;98565.94;5886150;29;97581;-57
2024/01/13 13:35:13;;;;;;;;;19.50;18.50;;;;;6.23;100.00;98558.69;5882933;29;97790;-57
2024/01/13 13:38:17;;;;;;;;;18.20;16.00;;;;;6.23;100.00;98582.78;5876013;29;96964;-56
2024/01/13 13:41:22;;;;;;;;;21.00;19.00;;;;;6.31;100.00;98569.22;5887674;29;96320;-56
2024/01/13 13:44:25;;;;;;;;;21.50;20.00;;;;;6.23;100.00;98559.53;5884862;29;96665;-55
2024/01/13 13:47:28;;;;;;;;;22.00;20.00;;;;;6.23;100.00;98543.47;5889322;29;96521;-55
2024/01/13 13:50:34;;;;;;;;;19.60;18.00;;;;;6.22;100.00;98538.31;5888430;29;96471;-56
2024/01/13 13:53:37;;;;;;;;;22.00;20.00;;;;;6.07;100.00;98515.22;5888875;29;96425;-56
2024/01/13 13:56:42;;;;;;;;;20.50;19.00;;;;;6.00;100.00;98505.53;5888076;29;97473;-55
2024/01/13 13:59:45;;;;;;;;;22.40;20.40;;;;;5.96;100.00;98510.44;5890173;29;97497;-55
2024/01/13 14:02:49;;;;;;;;;19.75;18.00;;;;;5.97;100.00;98509.41;5887996;29;96373;-55
2024/01/13 14:05:52;;;;;;;;;22.00;20.25;;;;;6.01;100.00;98529.38;5893995;29;96487;-56
2024/01/13 14:08:55;;;;;;;;;22.00;21.00;;;;;6.01;100.00;98529.38;5890751;29;96305;-55
2024/01/13 14:12:00;;;;;;;;;22.40;20.80;;;;;6.04;100.00;98534.38;5893939;29;96803;-55
2024/01/13 14:15:04;;;;;;;;;22.00;21.00;;;;;6.04;100.00;98520.97;5888634;29;96452;-56